Time;durP1;ratioP1;P1;durP2;ratioP2;P2;SDS_P1;SDS_P2;PMS_P1;PMS_P2;Temp;Humidity;BMP_temperature;BMP_pressure;BME280_temperature;BME280_humidity;BME280_pressure;Samples;Min_cycle;Max_cycle;Signal;HPM_P1;HPM_P2
2022/06/03 00:00:24;;;;;;;3.03;2.72;;;;;;;15.09;55.66;102013.06;5090003;28;20356;-53
2022/06/03 00:03:14;;;;;;;3.75;2.83;;;;;;;15.09;55.62;102013.06;5092910;28;20062;-50
2022/06/03 00:05:48;;;;;;;3.88;3.17;;;;;;;15.06;55.63;102013.22;5093440;28;20027;-52
2022/06/03 00:08:53;;;;;;;3.53;2.55;;;;;;;15.06;55.73;102021.19;5090305;28;20044;-50
2022/06/03 00:11:55;;;;;;;5.38;2.70;;;;;;;15.04;55.77;102020.44;5072682;28;20044;-52
2022/06/03 00:14:39;;;;;;;3.38;2.97;;;;;;;15.02;55.79;102017.00;5090140;28;20020;-53
2022/06/03 00:17:32;;;;;;;3.83;2.60;;;;;;;15.01;55.83;102010.84;5085744;28;20024;-49
2022/06/03 00:19:57;;;;;;;3.90;2.85;;;;;;;15.00;55.75;102025.03;5089866;28;20024;-51
2022/06/03 00:22:31;;;;;;;;;;;;;;;14.99;55.60;102025.97;5086847;28;20020;-51
2022/06/03 00:25:17;;;;;;;3.70;3.10;;;;;;;15.06;56.42;102023.81;5086147;28;20408;-53
2022/06/03 00:28:03;;;;;;;3.40;2.92;;;;;;;15.03;56.20;102018.72;5085322;28;20028;-50
2022/06/03 00:31:02;;;;;;;6.47;2.80;;;;;;;14.99;55.95;102017.19;5087402;28;20058;-50
2022/06/03 00:34:00;;;;;;;3.85;2.90;;;;;;;14.90;55.96;102019.38;5088422;28;20055;-52
2022/06/03 00:36:50;;;;;;;4.10;3.05;;;;;;;14.85;56.18;102021.47;5089753;28;20081;-54
2022/06/03 00:39:39;;;;;;;;;;;;;;;14.80;55.84;102020.84;5085767;28;20024;-50
2022/06/03 00:42:34;;;;;;;2.92;2.53;;;;;;;14.78;55.87;102020.94;5088085;28;19920;-54
2022/06/03 00:45:41;;;;;;;4.65;2.70;;;;;;;14.78;55.97;102033.31;5091175;28;20039;-50
2022/06/03 00:48:21;;;;;;;3.85;2.83;;;;;;;14.78;55.68;102022.72;5087132;28;20074;-53
2022/06/03 00:51:24;;;;;;;4.05;2.75;;;;;;;14.75;55.82;102020.22;5089707;28;20111;-51
2022/06/03 00:54:20;;;;;;;3.67;2.30;;;;;;;14.72;55.90;102017.78;5087115;28;20858;-51
2022/06/03 00:56:55;;;;;;;2.95;2.60;;;;;;;14.68;56.01;102022.38;5086871;28;20070;-50
2022/06/03 00:59:46;;;;;;;3.50;2.58;;;;;;;14.65;56.24;102019.88;5091190;28;20031;-49
2022/06/03 01:02:23;;;;;;;5.07;3.08;;;;;;;14.63;56.34;102009.34;5080968;28;20024;-53
2022/06/03 01:05:16;;;;;;;3.35;2.85;;;;;;;14.63;56.16;102011.16;5088236;28;20043;-53
2022/06/03 01:08:15;;;;;;;4.22;3.00;;;;;;;14.63;56.22;102012.00;5086374;28;20028;-52
2022/06/03 01:10:59;;;;;;;4.53;2.80;;;;;;;14.62;56.31;102010.28;5087725;28;20031;-51
2022/06/03 01:13:52;;;;;;;3.10;2.70;;;;;;;14.61;56.39;102015.69;5088619;28;20070;-50
2022/06/03 01:16:18;;;;;;;4.28;2.55;;;;;;;14.60;56.40;102012.16;5082839;28;20028;-50
2022/06/03 01:19:05;;;;;;;4.03;2.50;;;;;;;14.60;56.20;102012.16;5091153;28;20038;-50
2022/06/03 01:21:45;;;;;;;3.63;2.63;;;;;;;14.58;56.20;102014.06;5094302;28;20028;-50
2022/06/03 01:24:16;;;;;;;;;;;;;;;14.54;56.09;102015.16;5088913;28;20499;-52
2022/06/03 01:27:00;;;;;;;3.00;2.50;;;;;;;14.52;55.91;102014.38;5091885;28;19924;-50
2022/06/03 01:30:10;;;;;;;2.85;2.55;;;;;;;14.45;56.29;102013.88;5087171;28;20452;-49
2022/06/03 01:33:01;;;;;;;3.58;2.78;;;;;;;14.40;56.34;102015.91;5084824;28;20016;-50
2022/06/03 01:35:54;;;;;;;3.78;2.97;;;;;;;14.37;56.37;102017.84;5089193;28;20016;-49
2022/06/03 01:38:41;;;;;;;2.95;2.67;;;;;;;14.33;56.57;102015.38;5089848;28;20028;-51
2022/06/03 01:41:14;;;;;;;4.57;2.90;;;;;;;14.31;56.68;102017.25;5092753;28;20103;-55
2022/06/03 01:43:46;;;;;;;3.42;3.03;;;;;;;14.33;56.62;102017.19;5086144;28;20480;-52
2022/06/03 01:46:25;;;;;;;5.03;2.67;;;;;;;14.36;56.62;102021.44;5085187;28;20088;-54
2022/06/03 01:48:56;;;;;;;5.72;2.90;;;;;;;14.37;56.26;102020.50;5079782;28;20067;-50
2022/06/03 01:51:44;;;;;;;2.58;2.33;;;;;;;14.37;56.50;102023.16;5092619;28;20027;-51
2022/06/03 01:54:47;;;;;;;5.13;2.60;;;;;;;14.35;56.50;102022.38;5082202;28;20117;-51
2022/06/03 01:57:17;;;;;;;3.40;2.60;;;;;;;14.30;56.45;102023.47;5085321;28;20531;-52
2022/06/03 01:59:48;;;;;;;4.28;2.70;;;;;;;14.30;56.45;102027.91;5087354;28;20028;-49
2022/06/03 02:02:25;;;;;;;3.33;2.50;;;;;;;14.25;56.73;102028.16;5089677;28;20028;-53
2022/06/03 02:05:42;;;;;;;3.25;2.80;;;;;;;14.21;56.70;102034.56;5088721;28;20431;-51
2022/06/03 02:08:45;;;;;;;3.13;2.80;;;;;;;14.18;56.78;102030.28;5050662;28;20044;-51
2022/06/03 02:11:34;;;;;;;3.47;3.00;;;;;;;14.16;56.67;102041.88;5083960;28;20150;-51
2022/06/03 02:14:40;;;;;;;2.55;2.35;;;;;;;14.15;56.88;102032.22;5077891;28;20111;-52
2022/06/03 02:17:50;;;;;;;3.22;2.92;;;;;;;14.13;56.61;102039.41;5085501;28;20024;-50
2022/06/03 02:20:34;;;;;;;;;;;;;;;14.11;56.53;102038.63;5065114;28;20055;-51
2022/06/03 02:23:30;;;;;;;3.42;2.83;;;;;;;14.11;56.62;102039.47;5086634;28;19912;-51
2022/06/03 02:26:17;;;;;;;3.38;2.80;;;;;;;14.08;56.75;102038.78;5089191;28;20036;-53
2022/06/03 02:32:21;;;;;;;3.45;2.88;;;;;;;14.04;56.67;102024.88;5084963;28;20042;-51
2022/06/03 02:35:18;;;;;;;5.38;3.22;;;;;;;14.00;56.73;102024.16;5085944;28;20035;-51
2022/06/03 02:38:03;;;;;;;5.82;3.00;;;;;;;13.99;56.63;102024.22;5081209;28;20557;-53
2022/06/03 02:40:39;;;;;;;3.35;3.00;;;;;;;13.93;56.53;102028.06;5083023;28;20042;-50
2022/06/03 02:43:38;;;;;;;3.97;3.10;;;;;;;13.88;56.61;102027.44;5079557;28;20112;-54
2022/06/03 02:46:41;;;;;;;3.40;3.10;;;;;;;13.86;56.84;102024.00;5078384;28;20035;-55
2022/06/03 02:49:18;;;;;;;4.13;3.00;;;;;;;13.86;56.92;102024.00;5089395;28;20487;-49
2022/06/03 02:52:04;;;;;;;164.98;18.95;;;;;;;13.83;56.86;102024.19;5091674;28;20031;-50
2022/06/03 02:54:56;;;;;;;3.47;3.08;;;;;;;13.79;56.87;102028.75;5085246;28;20404;-53
2022/06/03 02:57:49;;;;;;;6.30;3.28;;;;;;;13.77;56.78;102021.84;5085271;28;20101;-54
2022/06/03 03:00:23;;;;;;;4.95;3.15;;;;;;;13.76;56.70;102038.63;5081847;28;20024;-50
2022/06/03 03:02:54;;;;;;;3.70;3.10;;;;;;;13.75;56.99;102036.94;5081755;28;20023;-52
2022/06/03 03:06:00;;;;;;;5.50;3.20;;;;;;;13.76;57.03;102033.34;5088956;28;20032;-51
2022/06/03 03:09:08;;;;;;;3.20;2.90;;;;;;;13.78;56.75;102039.44;5079632;28;20034;-54
2022/06/03 03:12:01;;;;;;;6.78;3.50;;;;;;;13.77;56.66;102035.06;5055061;28;20632;-50
2022/06/03 03:14:46;;;;;;;4.18;3.10;;;;;;;13.76;56.48;102034.22;5082355;28;20162;-50
2022/06/03 03:17:47;;;;;;;4.78;3.40;;;;;;;13.74;56.65;102036.09;5079099;28;20028;-54
2022/06/03 03:20:25;;;;;;;3.78;3.25;;;;;;;13.75;56.70;102029.00;5072690;28;20051;-52
2022/06/03 03:23:03;;;;;;;3.75;3.17;;;;;;;13.74;56.56;102038.72;5080005;28;20106;-52
2022/06/03 03:26:05;;;;;;;4.32;3.30;;;;;;;13.72;56.58;102033.50;5084598;28;20035;-49
2022/06/03 03:28:46;;;;;;;3.17;2.45;;;;;;;13.72;56.38;102035.31;5081124;28;20027;-54
2022/06/03 03:31:34;;;;;;;3.13;2.42;;;;;;;13.71;56.34;102034.44;5078868;28;20084;-54
2022/06/03 03:34:21;;;;;;;3.30;2.20;;;;;;;13.71;56.49;102045.00;5083347;28;20054;-53
2022/06/03 03:37:00;;;;;;;3.03;2.60;;;;;;;13.68;56.51;102042.53;5083267;28;20030;-54
2022/06/03 03:40:02;;;;;;;3.10;2.20;;;;;;;13.64;56.58;102034.81;5080978;28;20020;-52
2022/06/03 03:42:56;;;;;;;2.50;2.20;;;;;;;13.57;56.75;102045.72;5090290;28;20024;-52
2022/06/03 03:45:52;;;;;;;2.30;2.10;;;;;;;13.59;56.79;102050.06;5088852;28;20024;-50
2022/06/03 03:48:48;;;;;;;2.45;2.25;;;;;;;13.54;56.89;102048.50;5086884;28;20491;-51
2022/06/03 03:51:35;;;;;;;3.25;2.03;;;;;;;13.56;56.92;102053.72;5083844;28;20012;-51
2022/06/03 03:54:38;;;;;;;2.67;2.35;;;;;;;13.53;57.12;102045.94;5080959;28;20679;-50
2022/06/03 03:57:09;;;;;;;2.58;2.38;;;;;;;13.51;57.14;102053.09;5082276;28;20032;-51
2022/06/03 03:59:56;;;;;;;4.20;2.65;;;;;;;13.51;57.06;102042.53;5083081;28;20391;-50
2022/06/03 04:02:40;;;;;;;3.28;2.60;;;;;;;13.55;57.07;102052.00;5080799;28;20047;-50
2022/06/03 04:05:14;;;;;;;3.83;2.97;;;;;;;13.56;57.43;102051.06;5082640;28;20028;-53
2022/06/03 04:08:21;;;;;;;3.58;3.25;;;;;;;13.60;57.44;102051.78;5087287;28;20059;-51
2022/06/03 04:11:11;;;;;;;4.07;3.17;;;;;;;13.64;57.47;102061.25;5049774;28;20046;-52
2022/06/03 04:14:12;;;;;;;4.82;3.17;;;;;;;13.68;57.65;102052.25;5083548;28;20027;-53
2022/06/03 04:16:43;;;;;;;5.07;4.07;;;;;;;13.71;57.59;102060.03;5079465;28;20031;-52
2022/06/03 04:19:15;;;;;;;129.03;15.40;;;;;;;13.74;57.34;102053.72;5088722;28;20107;-51
2022/06/03 04:22:25;;;;;;;4.55;3.80;;;;;;;13.78;57.80;102052.66;5073020;28;20729;-51
2022/06/03 04:25:28;;;;;;;5.72;3.50;;;;;;;13.80;57.79;102062.22;5070623;28;20044;-52
2022/06/03 04:27:58;;;;;;;3.70;3.20;;;;;;;13.80;57.77;102058.72;5082897;28;20036;-50
2022/06/03 04:31:00;;;;;;;5.45;3.58;;;;;;;13.81;58.00;102061.28;5087453;28;20047;-49
2022/06/03 04:33:47;;;;;;;4.47;3.53;;;;;;;13.85;57.87;102062.84;5078950;28;20024;-50
2022/06/03 04:36:37;;;;;;;3.97;3.33;;;;;;;13.86;58.18;102053.09;5080532;28;20031;-50
2022/06/03 04:39:21;;;;;;;3.30;3.00;;;;;;;13.90;57.99;102062.59;5082437;28;20028;-49
2022/06/03 04:42:23;;;;;;;3.90;3.30;;;;;;;13.92;58.20;102055.44;5087238;28;20077;-50
2022/06/03 04:45:04;;;;;;;4.78;4.22;;;;;;;13.95;57.97;102067.66;5091891;28;20028;-51
2022/06/03 04:48:00;;;;;;;5.13;4.05;;;;;;;13.98;58.25;102068.38;5085557;28;20059;-50
2022/06/03 04:50:53;;;;;;;4.13;3.72;;;;;;;14.00;58.13;102061.19;5082799;28;20417;-50
2022/06/03 04:54:01;;;;;;;4.30;3.50;;;;;;;14.03;58.38;102061.03;5077882;28;20457;-54
2022/06/03 04:56:36;;;;;;;3.40;3.10;;;;;;;14.06;58.45;102060.06;5087843;28;20086;-53
2022/06/03 04:59:14;;;;;;;4.80;3.63;;;;;;;14.08;58.52;102065.25;5092225;28;20038;-53
2022/06/03 05:02:02;;;;;;;4.50;3.47;;;;;;;14.12;58.73;102067.66;5088721;28;20043;-50
2022/06/03 05:05:02;;;;;;;5.97;3.50;;;;;;;14.18;58.80;102066.47;5051171;28;20040;-51
2022/06/03 05:07:50;;;;;;;4.97;3.25;;;;;;;14.23;59.06;102069.75;5085983;28;20568;-52
2022/06/03 05:10:53;;;;;;;11.52;7.07;;;;;;;14.30;59.05;102073.78;5093220;28;20024;-50
2022/06/03 05:13:53;;;;;;;4.95;4.15;;;;;;;14.36;59.17;102069.09;5092487;28;20488;-51
2022/06/03 05:17:07;;;;;;;8.98;5.95;;;;;;;14.40;59.02;102074.16;5066827;28;20063;-50
2022/06/03 05:19:44;;;;;;;7.68;4.45;;;;;;;14.46;59.09;102078.25;5090784;28;20051;-51
2022/06/03 05:22:28;;;;;;;6.05;4.43;;;;;;;14.51;59.46;102076.22;5088807;28;20051;-50
2022/06/03 05:25:32;;;;;;;6.68;4.70;;;;;;;14.57;59.34;102077.69;5092218;28;20533;-53
2022/06/03 05:28:23;;;;;;;4.00;3.58;;;;;;;14.63;59.21;102082.69;5088886;28;20020;-52
2022/06/03 05:31:20;;;;;;;5.97;4.20;;;;;;;14.68;59.42;102082.47;5092561;28;20032;-53
2022/06/03 05:33:57;;;;;;;5.70;4.43;;;;;;;14.74;59.41;102084.78;5087717;28;20031;-52
2022/06/03 05:36:37;;;;;;;4.78;4.28;;;;;;;14.78;59.63;102091.63;5094734;28;20032;-54
2022/06/03 05:39:40;;;;;;;4.75;3.92;;;;;;;14.83;59.66;102078.97;5089780;28;20024;-50
2022/06/03 05:42:35;;;;;;;4.78;3.80;;;;;;;14.89;59.83;102086.59;5083856;28;20055;-51
2022/06/03 05:45:22;;;;;;;5.57;4.50;;;;;;;14.94;59.54;102084.53;5092923;28;20028;-51
2022/06/03 05:47:51;;;;;;;4.20;3.80;;;;;;;14.99;59.56;102086.09;5095004;28;20027;-50
2022/06/03 05:50:32;;;;;;;6.32;4.43;;;;;;;15.04;59.67;102087.53;5094789;28;20024;-53
2022/06/03 05:53:20;;;;;;;9.05;4.80;;;;;;;15.09;59.69;102084.63;5084699;28;20035;-50
2022/06/03 05:55:48;;;;;;;5.00;4.10;;;;;;;15.13;59.63;102072.06;5087696;28;20477;-50
2022/06/03 05:58:13;;;;;;;5.40;4.10;;;;;;;15.17;59.59;102079.78;5089885;28;20387;-53
2022/06/03 06:00:57;;;;;;;4.60;4.13;;;;;;;15.20;59.51;102079.56;5100472;28;20020;-50
2022/06/03 06:03:55;;;;;;;8.35;4.32;;;;;;;15.27;59.67;102084.56;5087193;28;20029;-52
2022/06/03 06:06:31;;;;;;;4.32;3.50;;;;;;;15.32;59.35;102077.19;5072162;28;20082;-51
2022/06/03 06:09:06;;;;;;;6.63;3.83;;;;;;;15.36;59.72;102078.72;5087125;28;20095;-53
2022/06/03 06:12:03;;;;;;;7.40;4.72;;;;;;;15.39;59.83;102084.72;5082989;28;20028;-52
2022/06/03 06:14:46;;;;;;;6.63;4.00;;;;;;;15.44;59.65;102081.81;5088772;28;20058;-50
2022/06/03 06:17:17;;;;;;;7.60;3.67;;;;;;;15.47;59.48;102084.28;5084392;28;20059;-54
2022/06/03 06:19:52;;;;;;;7.40;3.25;;;;;;;15.51;59.36;102085.78;5084025;28;20046;-54
2022/06/03 06:22:43;;;;;;;8.90;3.03;;;;;;;15.56;58.91;102085.56;5086289;28;20020;-51
2022/06/03 06:25:23;;;;;;;3.97;2.75;;;;;;;15.59;58.71;102082.69;5086364;28;20024;-54
2022/06/03 06:28:30;;;;;;;4.63;2.92;;;;;;;15.65;58.62;102081.50;5084971;28;20063;-51
2022/06/03 06:31:27;;;;;;;5.90;2.88;;;;;;;15.69;58.38;102075.94;5085444;28;20035;-52
2022/06/03 06:34:14;;;;;;;6.00;2.70;;;;;;;15.74;58.36;102073.00;5048088;28;21037;-53
2022/06/03 06:37:07;;;;;;;4.55;3.00;;;;;;;15.79;58.27;102073.59;5087903;28;20024;-51
2022/06/03 06:40:07;;;;;;;4.72;2.95;;;;;;;15.84;58.08;102060.91;5086605;28;20390;-53
2022/06/03 06:42:51;;;;;;;5.82;3.20;;;;;;;15.88;58.25;102058.09;5085659;28;20142;-52
2022/06/03 06:45:40;;;;;;;6.95;3.10;;;;;;;15.94;58.25;102058.59;5080405;28;20712;-51
2022/06/03 06:48:17;;;;;;;3.78;2.80;;;;;;;15.97;58.53;102058.41;5086085;28;20036;-52
2022/06/03 06:51:00;;;;;;;3.30;3.00;;;;;;;16.03;58.83;102066.97;5078472;28;20043;-53
2022/06/03 06:53:45;;;;;;;4.80;3.45;;;;;;;16.10;59.00;102076.25;5084195;28;20111;-51
2022/06/03 06:56:22;;;;;;;4.05;2.67;;;;;;;16.13;58.89;102073.41;5085025;28;20028;-50
2022/06/03 06:58:55;;;;;;;8.60;3.10;;;;;;;16.18;58.85;102065.16;5083992;28;20487;-51
2022/06/03 07:01:44;;;;;;;3.50;3.20;;;;;;;16.22;58.89;102067.53;5094629;28;20036;-52
2022/06/03 07:04:14;;;;;;;6.28;4.38;;;;;;;16.26;58.92;102070.88;5085951;28;20024;-50
2022/06/03 07:07:02;;;;;;;4.82;2.88;;;;;;;16.28;58.79;102067.19;5081913;28;20061;-51
2022/06/03 07:09:57;;;;;;;4.88;2.70;;;;;;;16.32;58.38;102062.53;5089455;28;20040;-54
2022/06/03 07:12:51;;;;;;;4.13;2.75;;;;;;;16.35;58.22;102064.13;5086454;28;20495;-53
2022/06/03 07:15:32;;;;;;;3.47;2.75;;;;;;;16.39;58.04;102065.66;5087000;28;20024;-53
2022/06/03 07:21:16;;;;;;;5.22;2.05;;;;;;;16.45;56.80;102058.16;5095770;28;20046;-51
2022/06/03 07:23:52;;;;;;;3.97;2.53;;;;;;;16.48;56.35;102056.28;5088009;28;20027;-50
2022/06/03 07:26:17;;;;;;;3.97;2.45;;;;;;;16.52;56.16;102057.78;5090722;28;20040;-51
2022/06/03 07:28:53;;;;;;;13.73;8.50;;;;;;;16.53;55.55;102052.38;5092937;28;20035;-51
2022/06/03 07:31:34;;;;;;;4.55;2.30;;;;;;;16.59;54.56;102048.47;5093218;28;20432;-51
2022/06/03 07:34:18;;;;;;;2.63;1.80;;;;;;;16.64;53.96;102048.22;5080653;28;20024;-53
2022/06/03 07:37:07;;;;;;;5.10;3.17;;;;;;;16.67;53.83;102048.88;5090127;28;20112;-51
2022/06/03 07:39:36;;;;;;;4.07;2.63;;;;;;;16.70;53.76;102046.03;5086666;28;20102;-50
2022/06/03 07:42:06;;;;;;;3.08;2.13;;;;;;;16.74;53.69;102047.50;5083344;28;20070;-51
2022/06/03 07:44:58;;;;;;;4.65;2.70;;;;;;;16.77;53.27;102055.31;5097666;28;21345;-53
2022/06/03 07:47:26;;;;;;;8.05;1.88;;;;;;;16.83;52.66;102051.41;5096432;28;20047;-51
2022/06/03 07:50:00;;;;;;;3.47;1.63;;;;;;;16.86;52.29;102045.88;5085156;28;20113;-54
2022/06/03 07:52:41;;;;;;;4.70;2.00;;;;;;;16.91;51.97;102054.44;5093003;28;20174;-53
2022/06/03 07:55:12;;;;;;;4.75;1.80;;;;;;;16.96;51.74;102051.50;5089073;28;20116;-50
2022/06/03 07:57:38;;;;;;;3.67;2.00;;;;;;;17.03;51.45;102049.31;5084858;28;20032;-53
2022/06/03 08:00:12;;;;;;;4.25;1.90;;;;;;;17.06;51.31;102052.63;5082492;28;20088;-52
2022/06/03 08:02:37;;;;;;;6.35;1.80;;;;;;;17.11;51.31;102048.81;5086830;28;20476;-53
2022/06/03 08:05:17;;;;;;;2.35;1.80;;;;;;;17.14;50.83;102043.31;5082366;28;20035;-51
2022/06/03 08:13:20;;;;;;;2.17;1.65;;;;;;;17.26;50.17;102047.81;5090682;28;20438;-50
2022/06/03 08:15:57;;;;;;;5.47;3.22;;;;;;;17.29;49.92;102049.41;5098724;28;20055;-50
2022/06/03 08:18:27;;;;;;;4.75;1.90;;;;;;;17.32;49.71;102057.19;5093784;28;20040;-53
2022/06/03 08:20:59;;;;;;;4.53;1.70;;;;;;;17.36;49.60;102054.22;5099350;28;20500;-49
2022/06/03 08:23:25;;;;;;;4.45;1.70;;;;;;;17.40;49.60;102052.19;5086912;28;20170;-50
2022/06/03 08:25:55;;;;;;;3.63;1.52;;;;;;;17.45;49.56;102055.44;5095201;28;20032;-52
2022/06/03 08:28:25;;;;;;;7.15;3.40;;;;;;;17.51;49.24;102051.50;5094034;28;20036;-49
2022/06/03 08:30:53;;;;;;;4.82;3.15;;;;;;;17.56;49.25;102049.41;5097838;28;20118;-50
2022/06/03 08:33:51;;;;;;;1.40;1.30;;;;;;;17.60;48.79;102050.91;5093158;28;20404;-50
2022/06/03 08:36:23;;;;;;;1.75;1.27;;;;;;;17.66;48.47;102046.97;5086485;28;20042;-52
2022/06/03 08:39:17;;;;;;;3.08;1.35;;;;;;;17.72;47.97;102051.03;5094447;28;20047;-52
2022/06/03 08:41:49;;;;;;;1.67;1.35;;;;;;;17.76;47.65;102045.38;5091751;28;20039;-50
2022/06/03 08:44:38;;;;;;;2.08;1.35;;;;;;;17.78;47.77;102043.47;5098543;28;20028;-51
2022/06/03 08:47:06;;;;;;;344.50;37.40;;;;;;;17.82;47.56;102044.13;5092244;28;20039;-53
2022/06/03 08:50:06;;;;;;;8.65;1.50;;;;;;;17.85;47.00;102046.56;5090191;28;20109;-51
2022/06/03 08:52:32;;;;;;;2.95;1.60;;;;;;;17.85;46.96;102054.56;5095424;28;20123;-51
2022/06/03 08:55:03;;;;;;;3.45;1.63;;;;;;;17.89;46.85;102045.41;5099442;28;20108;-50
2022/06/03 08:57:37;;;;;;;2.08;1.50;;;;;;;17.89;46.97;102042.75;5090180;28;20128;-50
2022/06/03 09:00:11;;;;;;;2.30;1.50;;;;;;;17.93;46.78;102049.56;5093138;28;20032;-49
2022/06/03 09:02:54;;;;;;;4.07;1.70;;;;;;;17.95;46.57;102042.31;5092176;28;20035;-50
2022/06/03 09:06:18;;;;;;;5.97;2.22;;;;;;;17.98;46.76;102039.47;5095717;28;20387;-50
2022/06/03 09:08:55;;;;;;;1.73;1.42;;;;;;;18.04;46.55;102038.19;5008209;28;20033;-52
2022/06/03 09:11:34;;;;;;;3.28;1.30;;;;;;;18.09;46.44;102035.22;5028758;28;20036;-50
2022/06/03 09:14:10;;;;;;;2.17;1.27;;;;;;;18.11;46.13;102036.84;5074225;28;20100;-51
2022/06/03 09:16:40;;;;;;;4.55;1.55;;;;;;;18.16;46.08;102038.31;5097221;28;20031;-50
2022/06/03 09:19:09;;;;;;;;;;;;;;;18.16;46.14;102028.53;5085390;28;20031;-50
2022/06/03 09:21:41;;;;;;;5.68;1.40;;;;;;;18.20;45.81;102023.81;5094870;28;19954;-52
2022/06/03 09:24:17;;;;;;;3.70;1.25;;;;;;;18.22;45.33;102029.91;5088849;28;20492;-50
2022/06/03 09:26:46;;;;;;;3.60;1.30;;;;;;;18.24;45.33;102023.50;5089547;28;20429;-50
2022/06/03 09:29:13;;;;;;;;;;;;;;;18.24;45.69;102023.50;5089209;28;20043;-51
2022/06/03 09:31:49;;;;;;;7.70;4.43;;;;;;;18.28;45.44;102022.31;5082636;28;20339;-52
2022/06/03 09:34:17;;;;;;;4.00;1.52;;;;;;;18.33;45.20;102023.81;5088209;28;20028;-58
2022/06/03 09:36:43;;;;;;;3.03;1.60;;;;;;;18.35;44.85;102013.91;5095944;28;20024;-50
2022/06/03 09:39:16;;;;;;;2.35;1.80;;;;;;;18.40;44.43;102017.09;5088873;28;20119;-52
2022/06/03 09:41:46;;;;;;;2.60;1.60;;;;;;;18.42;44.28;102012.50;5081009;28;20032;-55
2022/06/03 09:44:15;;;;;;;4.05;1.67;;;;;;;18.44;44.04;102007.91;5082544;28;20074;-50
2022/06/03 09:46:42;;;;;;;1.20;1.10;;;;;;;18.47;43.55;102012.16;5082649;28;20392;-52
2022/06/03 09:49:09;;;;;;;1.90;1.38;;;;;;;18.50;43.07;102007.50;5079936;28;20067;-51
2022/06/03 09:51:56;;;;;;;2.85;1.30;;;;;;;18.51;43.22;102003.00;5088753;28;20027;-53
2022/06/03 09:54:38;;;;;;;2.88;1.42;;;;;;;18.55;43.02;102004.50;5084792;28;20036;-53
2022/06/03 09:57:33;;;;;;;2.20;1.40;;;;;;;18.58;43.26;102006.94;5086452;28;20024;-52
2022/06/03 10:00:21;;;;;;;2.80;1.30;;;;;;;18.72;42.63;102003.25;5083901;28;20818;-52
2022/06/03 10:02:47;;;;;;;2.53;1.33;;;;;;;18.76;43.02;101996.75;5097387;28;20040;-52
2022/06/03 10:05:16;;;;;;;3.83;1.90;;;;;;;18.82;43.04;101995.44;5085675;28;20036;-54
2022/06/03 10:07:43;;;;;;;2.90;1.70;;;;;;;18.87;42.99;101999.47;5086253;28;20063;-51
2022/06/03 10:13:00;;;;;;;16.92;9.75;;;;;;;18.98;42.89;101988.06;5087230;28;20137;-49
2022/06/03 10:15:38;;;;;;;7.40;3.40;;;;;;;19.01;42.71;101987.84;5090238;28;20108;-50
2022/06/03 10:18:08;;;;;;;3.58;2.05;;;;;;;19.01;42.63;101985.16;5095931;28;20028;-52
2022/06/03 10:20:34;;;;;;;;;;;;;;;18.99;42.33;101976.44;5093637;28;20032;-51
2022/06/03 10:23:01;;;;;;;;;;;;;;;19.00;42.75;101982.59;5095461;28;19932;-53
2022/06/03 10:25:27;;;;;;;;;;;;;;;19.03;42.77;101977.03;5091985;28;20496;-55
2022/06/03 10:27:52;;;;;;;;;;;;;;;19.07;42.96;101975.84;5087599;28;20459;-53
2022/06/03 10:30:25;;;;;;;;;;;;;;;19.11;42.99;101966.66;5084483;28;20379;-53
2022/06/03 10:32:51;;;;;;;;;;;;;;;19.14;43.28;101963.75;5078810;28;20008;-52
2022/06/03 10:35:17;;;;;;;;;;;;;;;19.17;43.34;101960.03;5081365;28;19952;-51
2022/06/03 10:37:47;;;;;;;;;;;;;;;19.24;43.37;101960.41;5088325;28;19921;-52
2022/06/03 10:40:14;;;;;;;;;;;;;;;19.33;43.42;101962.38;5093095;28;19908;-52
2022/06/03 10:42:40;;;;;;;;;;;;;;;19.42;43.27;101950.16;5086582;28;20007;-51
2022/06/03 10:45:08;;;;;;;;;;;;;;;19.45;43.27;101949.91;5086448;28;19916;-50
2022/06/03 10:47:35;;;;;;;;;;;;;;;19.47;43.19;101954.16;5095974;28;19911;-54
2022/06/03 10:50:04;;;;;;;;;;;;;;;19.50;43.21;101951.25;5090417;28;20005;-52
2022/06/03 11:01:12;;;;;;;;;;;;;;;19.78;42.95;101957.13;5093018;28;19932;-53
2022/06/03 11:03:41;;;;;;;;;;;;;;;19.83;43.01;101951.41;5084664;28;19912;-52
2022/06/03 11:06:07;;;;;;;;;;;;;;;19.87;42.83;101950.25;5087804;28;19981;-52
2022/06/03 11:08:51;;;;;;;;;;;;;;;19.94;42.60;101948.81;5091844;28;20283;-53
2022/06/03 11:11:35;;;;;;;;;;;;;;;20.01;42.26;101951.84;5091500;28;20010;-50
2022/06/03 11:14:21;;;;;;;;;;;;;;;20.09;42.64;101938.72;5087616;28;19990;-48
2022/06/03 11:16:52;;;;;;;;;;;;;;;20.17;42.19;101937.28;5094273;28;19908;-48
2022/06/03 11:19:18;;;;;;;;;;;;;;;20.24;42.12;101935.78;5090837;28;20283;-52
2022/06/03 11:21:44;;;;;;;;;;;;;;;20.31;42.18;101942.34;5095630;28;19926;-49
2022/06/03 11:24:09;;;;;;;;;;;;;;;20.36;42.11;101932.13;5089198;28;19916;-49
2022/06/03 11:26:37;;;;;;;;;;;;;;;20.39;42.00;101925.69;5091813;28;19971;-49
2022/06/03 11:29:08;;;;;;;;;;;;;;;20.39;41.52;101926.53;5090475;28;19911;-51
2022/06/03 11:31:37;;;;;;;;;;;;;;;20.44;41.42;101926.16;5092817;28;20387;-49
2022/06/03 11:34:07;;;;;;;;;;;;;;;20.47;41.75;101925.09;5087104;28;20400;-49
2022/06/03 11:36:33;;;;;;;;;;;;;;;20.54;41.34;101918.25;5089849;28;19912;-49
2022/06/03 11:39:21;;;;;;;;;;;;;;;20.62;41.48;101917.63;5079837;28;20366;-48
2022/06/03 11:41:50;;;;;;;;;;;;;;;20.71;41.28;101923.06;5086373;28;19922;-50
2022/06/03 11:44:30;;;;;;;;;;;;;;;20.79;41.38;101918.94;5086596;28;19912;-50
2022/06/03 11:47:05;;;;;;;;;;;;;;;20.87;41.39;101916.47;5088323;28;19951;-52
2022/06/03 11:49:32;;;;;;;;;;;;;;;20.94;41.05;101916.81;5085714;28;19908;-52
2022/06/03 11:51:57;;;;;;;;;;;;;;;21.00;40.83;101916.31;5085497;28;19922;-49
2022/06/03 11:54:25;;;;;;;;;;;;;;;21.09;40.86;101909.34;5095621;28;20323;-49
2022/06/03 11:56:51;;;;;;;;;;;;;;;21.14;40.79;101902.59;5088692;28;20398;-52
2022/06/03 11:59:26;;;;;;;;;;;;;;;21.14;40.40;101893.72;5090265;28;19916;-49
2022/06/03 12:01:52;;;;;;;;;;;;;;;21.13;40.32;101892.00;5091417;28;19919;-52
2022/06/03 12:04:33;;;;;;;;;;;;;;;21.12;40.25;101883.16;5084731;28;19995;-52
2022/06/03 12:07:17;;;;;;;;;;;;;;;21.14;40.49;101878.53;5085494;28;19916;-53
2022/06/03 12:09:48;;;;;;;;;;;;;;;21.20;40.49;101873.59;5084662;28;19923;-52
2022/06/03 12:15:32;;;;;;;;;;;;;;;21.31;40.13;101863.69;5088167;28;19981;-50
2022/06/03 12:18:06;;;;;;;;;;;;;;;21.41;39.97;101870.91;5094122;28;20341;-50
2022/06/03 12:20:32;;;;;;;;;;;;;;;21.50;39.83;101866.59;5094509;28;20006;-49
2022/06/03 12:23:17;;;;;;;1.47;1.27;;;;;;;21.64;36.88;101868.94;5085779;28;20521;-50
2022/06/03 12:26:22;;;;;;;2.20;1.30;;;;;;;21.67;36.81;101852.63;5034834;28;20550;-50
2022/06/03 12:28:50;;;;;;;2.50;1.10;;;;;;;21.72;36.31;101852.19;5089178;28;20063;-49
2022/06/03 12:31:19;;;;;;;4.43;1.40;;;;;;;21.73;36.32;101848.53;5097957;28;20025;-50
2022/06/03 12:34:09;;;;;;;1.30;1.20;;;;;;;21.76;36.32;101846.47;5091404;28;20027;-49
2022/06/03 12:36:52;;;;;;;3.00;1.40;;;;;;;21.86;36.87;101838.44;5093784;28;20576;-49
2022/06/03 12:39:18;;;;;;;2.20;1.20;;;;;;;21.96;36.02;101837.63;5089134;28;20111;-50
2022/06/03 12:41:46;;;;;;;3.60;1.60;;;;;;;21.98;35.62;101835.66;5094961;28;20107;-52
2022/06/03 12:44:49;;;;;;;3.45;1.60;;;;;;;22.01;35.33;101830.88;5082662;28;20515;-53
2022/06/03 12:47:35;;;;;;;1.98;1.50;;;;;;;22.07;35.25;101824.97;5048682;28;20037;-49
2022/06/03 12:50:04;;;;;;;2.20;1.83;;;;;;;22.13;35.36;101815.53;5092545;28;20517;-50
2022/06/03 12:52:29;;;;;;;1.63;1.52;;;;;;;22.18;35.00;101815.09;5094572;28;20032;-50
2022/06/03 12:54:57;;;;;;;1.73;1.30;;;;;;;22.23;34.90;101808.34;5088669;28;20038;-48
2022/06/03 12:57:30;;;;;;;2.00;1.20;;;;;;;22.27;34.20;101811.56;5082669;28;20061;-48
2022/06/03 13:00:24;;;;;;;1.40;1.27;;;;;;;22.29;34.21;101814.13;5085946;28;20125;-53
2022/06/03 13:02:58;;;;;;;2.30;1.20;;;;;;;22.33;34.04;101807.50;5090336;28;20040;-48
2022/06/03 13:05:41;;;;;;;1.42;1.20;;;;;;;22.41;34.14;101802.28;5090619;28;20028;-49
2022/06/03 13:08:10;;;;;;;2.30;1.23;;;;;;;22.51;34.07;101805.84;5091073;28;20077;-49
2022/06/03 13:10:54;;;;;;;5.93;4.40;;;;;;;22.60;33.74;101798.78;5094231;28;20028;-51